Ahmedabad, India
Current Conditions -  °F | °C
As of 11:10 AM on Saturday 25 Oct 2014 (Local Time) from VAAH Reporting Station
Smoke Smoke  
Wind Chill: 93°   Ceiling: Unl
Heat Index: 95°   Visibility: 2.5mi
Dew Point: 64°   Wind: 5mph
Humidity: 38%   Direction: 10°N
Pressure: 29.85"   Gusts: NA
Location:  23.04°N, 72.57°E
Report Text: VAAH 250610Z 01004KT 4000 FU FEW080 34/18 Q1011 NOSIG
Loading
Personal Weather Stations






























Interactive Weather Map
Tropical Storm Tracking
New forecast layout! Learn more

10-Day Weather Forecast

Advertisements
Track Severe Weather on mobile